createdAt,value
2022-11-05T00:00:00.697Z,100.00
2022-11-05T00:05:02.203Z,100.00
2022-11-05T00:10:14.102Z,100.00
2022-11-05T00:15:15.687Z,100.00
2022-11-05T00:20:17.317Z,100.00
2022-11-05T00:25:20.030Z,100.00
2022-11-05T00:30:25.707Z,100.00
2022-11-05T00:35:27.377Z,100.00
2022-11-05T00:40:29.052Z,100.00
2022-11-05T00:45:31.737Z,100.00
2022-11-05T00:50:34.174Z,100.00
2022-11-05T00:55:41.666Z,100.00
2022-11-05T01:00:49.348Z,100.00
2022-11-05T01:05:53.852Z,100.00
2022-11-05T01:10:57.248Z,100.00
2022-11-05T01:16:05.925Z,100.00
2022-11-05T01:21:14.593Z,100.00
2022-11-05T01:26:16.261Z,100.00
2022-11-05T01:31:17.823Z,100.00
2022-11-05T01:36:19.431Z,100.00
2022-11-05T01:41:20.995Z,100.00
2022-11-05T01:46:45.498Z,100.00
2022-11-05T01:51:47.191Z,100.00
2022-11-05T01:56:53.995Z,100.00
2022-11-05T02:01:55.853Z,100.00
2022-11-05T02:06:58.114Z,100.00
2022-11-05T02:11:59.661Z,100.00
2022-11-05T02:17:09.580Z,100.00
2022-11-05T02:22:35.724Z,100.00
2022-11-05T02:27:58.979Z,100.00
2022-11-05T02:33:23.933Z,100.00
2022-11-05T02:38:37.269Z,100.00
2022-11-05T02:43:38.790Z,100.00
2022-11-05T02:48:40.300Z,100.00
2022-11-05T02:53:55.800Z,100.00
2022-11-05T02:58:57.351Z,100.00
2022-11-05T03:04:05.311Z,100.00
2022-11-05T03:09:06.739Z,100.00
2022-11-05T03:14:26.691Z,100.00
2022-11-05T03:19:34.807Z,100.00
2022-11-05T03:24:44.287Z,100.00
2022-11-05T03:30:00.597Z,100.00
2022-11-05T03:35:08.346Z,100.00
2022-11-05T03:40:12.471Z,100.00
2022-11-05T03:45:24.119Z,100.00
2022-11-05T03:50:43.082Z,100.00
2022-11-05T03:55:56.714Z,100.00
2022-11-05T04:01:01.638Z,100.00
2022-11-05T04:06:04.961Z,100.00
2022-11-05T04:11:08.870Z,100.00
2022-11-05T04:16:10.394Z,100.00
2022-11-05T04:21:11.924Z,100.00
2022-11-05T04:26:13.413Z,100.00
2022-11-05T04:31:14.988Z,100.00
2022-11-05T04:36:16.596Z,100.00
2022-11-05T04:41:18.289Z,100.00
2022-11-05T04:46:19.912Z,100.00
2022-11-05T04:51:21.510Z,100.00
2022-11-05T04:56:24.517Z,100.00
2022-11-05T05:01:26.152Z,100.00
2022-11-05T05:06:27.853Z,100.00
2022-11-05T05:11:29.379Z,100.00
2022-11-05T05:16:30.878Z,100.00
2022-11-05T05:21:32.434Z,100.00
2022-11-05T05:26:35.009Z,100.00
2022-11-05T05:31:37.074Z,100.00
2022-11-05T05:36:38.807Z,100.00
2022-11-05T05:41:40.431Z,100.00
2022-11-05T05:46:42.050Z,100.00
2022-11-05T05:51:43.630Z,100.00
2022-11-05T05:56:45.751Z,100.00
2022-11-05T06:01:47.486Z,100.00
2022-11-05T06:06:49.044Z,100.00
2022-11-05T06:11:50.574Z,100.00
2022-11-05T06:16:52.097Z,100.00
2022-11-05T06:21:53.626Z,100.00
2022-11-05T06:26:55.122Z,100.00
2022-11-05T06:31:56.617Z,100.00
2022-11-05T06:36:58.198Z,100.00
2022-11-05T06:47:21.361Z,100.00
2022-11-05T06:52:22.870Z,100.00
2022-11-05T06:57:24.440Z,100.00
2022-11-05T07:02:27.143Z,100.00
2022-11-05T07:07:28.784Z,100.00
2022-11-05T07:12:30.402Z,100.00
2022-11-05T07:17:32.865Z,100.00
2022-11-05T07:22:36.461Z,100.00
2022-11-05T07:27:39.429Z,100.00
2022-11-05T07:32:41.103Z,100.00
2022-11-05T07:37:50.780Z,100.00
2022-11-05T07:43:00.217Z,100.00
2022-11-05T07:48:03.649Z,100.00
2022-11-05T07:53:12.393Z,100.00
2022-11-05T07:58:14.173Z,100.00
2022-11-05T08:03:18.209Z,100.00
2022-11-05T08:08:20.233Z,100.00
2022-11-05T08:13:21.751Z,100.00
2022-11-05T08:18:23.352Z,100.00
2022-11-05T08:23:26.449Z,100.00
2022-11-05T08:28:27.982Z,100.00
2022-11-05T08:33:29.745Z,100.00
2022-11-05T08:38:31.715Z,100.00
2022-11-05T08:43:33.259Z,100.00
2022-11-05T08:48:34.902Z,100.00
2022-11-05T08:53:36.435Z,100.00
2022-11-05T08:58:38.031Z,100.00
2022-11-05T09:03:39.564Z,100.00
2022-11-05T09:08:41.178Z,100.00
2022-11-05T09:13:42.701Z,100.00
2022-11-05T09:18:44.287Z,100.00
2022-11-05T09:23:46.750Z,100.00
2022-11-05T09:28:48.279Z,100.00
2022-11-05T09:33:49.935Z,100.00
2022-11-05T09:38:51.582Z,100.00
2022-11-05T09:44:15.722Z,100.00
2022-11-05T09:49:31.495Z,100.00
2022-11-05T09:54:33.121Z,100.00
2022-11-05T09:59:44.388Z,100.00
2022-11-05T10:04:49.863Z,100.00
2022-11-05T10:10:04.274Z,100.00
2022-11-05T10:15:21.492Z,100.00
2022-11-05T10:20:35.385Z,100.00
2022-11-05T10:25:41.082Z,100.00
2022-11-05T10:30:44.974Z,100.00
2022-11-05T10:35:51.088Z,100.00
2022-11-05T10:40:52.533Z,100.00
2022-11-05T10:46:15.347Z,100.00
2022-11-05T10:51:18.378Z,100.00
2022-11-05T10:56:36.689Z,100.00
2022-11-05T11:01:38.432Z,98.92
2022-11-05T11:06:47.511Z,97.72
2022-11-05T11:11:56.968Z,96.53
2022-11-05T11:17:17.860Z,93.80
2022-11-05T11:22:21.206Z,90.19
2022-11-05T11:27:24.818Z,94.60
2022-11-05T11:32:39.089Z,93.38
2022-11-05T11:37:40.727Z,96.31
2022-11-05T11:42:47.174Z,95.79
2022-11-05T11:47:49.562Z,98.10
2022-11-05T11:52:52.305Z,98.27
2022-11-05T11:58:06.087Z,93.98
2022-11-05T12:03:46.147Z,92.39
2022-11-05T12:09:11.892Z,93.55
2022-11-05T12:14:28.197Z,91.64
2022-11-05T12:19:54.393Z,93.29
2022-11-05T12:25:34.723Z,90.98
2022-11-05T12:31:18.249Z,95.38
2022-11-05T12:36:30.270Z,95.85
2022-11-05T12:41:43.270Z,94.37
2022-11-05T12:46:50.805Z,96.98
2022-11-05T12:51:55.046Z,93.32
2022-11-05T12:57:02.801Z,94.10
2022-11-05T13:02:20.894Z,94.40
2022-11-05T13:07:30.668Z,95.79
2022-11-05T13:12:37.390Z,94.18
2022-11-05T13:17:53.606Z,92.38
2022-11-05T13:23:04.522Z,91.71
2022-11-05T13:28:35.528Z,91.69
2022-11-05T13:33:40.905Z,89.91
2022-11-05T13:38:47.140Z,88.70
2022-11-05T13:43:54.669Z,91.56
2022-11-05T13:49:17.831Z,92.74
2022-11-05T13:54:37.323Z,90.04
2022-11-05T13:59:45.400Z,90.67
2022-11-05T14:04:59.652Z,92.07
2022-11-05T14:10:36.679Z,93.24
2022-11-05T14:15:38.301Z,96.81
2022-11-05T14:20:57.532Z,92.37
2022-11-05T14:26:18.149Z,95.03
2022-11-05T14:31:19.600Z,95.37
2022-11-05T14:36:21.070Z,97.59
2022-11-05T14:41:22.709Z,93.93
2022-11-05T14:46:24.821Z,94.76
2022-11-05T14:51:35.120Z,96.60
2022-11-05T14:56:47.763Z,97.95
2022-11-05T15:01:51.103Z,100.00
2022-11-05T15:07:01.772Z,100.00
2022-11-05T15:12:13.694Z,100.00
2022-11-05T15:17:27.214Z,100.00
2022-11-05T15:22:32.742Z,100.00
2022-11-05T15:28:03.603Z,100.00
2022-11-05T15:33:19.230Z,100.00
2022-11-05T15:38:33.225Z,100.00
2022-11-05T15:43:34.793Z,100.00
2022-11-05T15:48:36.591Z,100.00
2022-11-05T15:54:08.210Z,100.00
2022-11-05T15:59:14.996Z,100.00
2022-11-05T16:04:28.749Z,100.00
2022-11-05T16:09:40.969Z,100.00
2022-11-05T16:14:42.655Z,100.00
2022-11-05T16:19:45.805Z,100.00
2022-11-05T16:24:48.059Z,100.00
2022-11-05T16:29:55.220Z,100.00
2022-11-05T16:35:02.877Z,100.00
2022-11-05T16:40:17.673Z,100.00
2022-11-05T16:45:23.274Z,100.00
2022-11-05T16:50:30.253Z,100.00
2022-11-05T16:55:33.151Z,100.00
2022-11-05T17:00:34.720Z,100.00
2022-11-05T17:05:36.304Z,100.00
2022-11-05T17:10:37.966Z,100.00
2022-11-05T17:15:39.495Z,100.00
2022-11-05T17:20:46.687Z,100.00
2022-11-05T17:25:51.297Z,100.00
2022-11-05T17:30:53.345Z,100.00
2022-11-05T17:35:55.717Z,100.00
2022-11-05T17:40:57.467Z,100.00
2022-11-05T17:46:04.361Z,100.00
2022-11-05T17:51:11.080Z,100.00
2022-11-05T17:56:17.014Z,100.00
2022-11-05T18:01:32.823Z,100.00
2022-11-05T18:06:34.642Z,100.00
2022-11-05T18:11:36.961Z,100.00
2022-11-05T18:16:38.620Z,100.00
2022-11-05T18:21:40.164Z,100.00
2022-11-05T18:26:42.236Z,100.00
2022-11-05T18:31:43.797Z,100.00
2022-11-05T18:36:45.347Z,100.00
2022-11-05T18:41:46.965Z,100.00
2022-11-05T18:46:58.009Z,100.00
2022-11-05T18:52:00.112Z,100.00
2022-11-05T18:57:01.676Z,100.00
2022-11-05T19:02:03.398Z,100.00
2022-11-05T19:07:06.202Z,100.00
2022-11-05T19:12:08.498Z,100.00
2022-11-05T19:17:11.141Z,100.00
2022-11-05T19:22:12.726Z,100.00
2022-11-05T19:27:14.472Z,100.00
2022-11-05T19:32:16.169Z,100.00
2022-11-05T19:37:17.726Z,100.00
2022-11-05T19:42:19.234Z,100.00
2022-11-05T19:47:21.104Z,100.00
2022-11-05T19:52:22.660Z,100.00
2022-11-05T19:57:24.180Z,100.00
2022-11-05T20:02:25.851Z,100.00
2022-11-05T20:07:27.412Z,100.00
2022-11-05T20:12:28.929Z,100.00
2022-11-05T20:17:30.536Z,100.00
2022-11-05T20:22:32.238Z,100.00
2022-11-05T20:27:33.739Z,100.00
2022-11-05T20:32:35.245Z,100.00
2022-11-05T20:37:36.804Z,100.00
2022-11-05T20:42:38.314Z,100.00
2022-11-05T20:47:40.079Z,100.00
2022-11-05T20:52:41.657Z,100.00
2022-11-05T20:57:43.161Z,100.00
2022-11-05T21:02:44.956Z,100.00
2022-11-05T21:07:46.650Z,100.00
2022-11-05T21:12:48.188Z,100.00
2022-11-05T21:17:50.418Z,100.00
2022-11-05T21:22:51.929Z,100.00
2022-11-05T21:27:53.484Z,100.00
2022-11-05T21:32:54.968Z,100.00
2022-11-05T21:37:56.643Z,100.00
2022-11-05T21:42:58.239Z,100.00
2022-11-05T21:47:59.851Z,100.00
2022-11-05T21:53:01.365Z,100.00
2022-11-05T21:58:17.047Z,100.00
2022-11-05T22:03:18.556Z,100.00
2022-11-05T22:08:20.067Z,100.00
2022-11-05T22:13:21.527Z,100.00
2022-11-05T22:18:23.025Z,100.00
2022-11-05T22:23:24.549Z,100.00
2022-11-05T22:28:26.097Z,100.00
2022-11-05T22:33:27.595Z,100.00
2022-11-05T22:38:30.693Z,100.00
2022-11-05T22:43:32.734Z,100.00
2022-11-05T22:48:38.337Z,100.00
2022-11-05T22:53:40.640Z,100.00
2022-11-05T22:58:42.147Z,100.00
2022-11-05T23:03:45.679Z,100.00
2022-11-05T23:08:47.231Z,100.00
2022-11-05T23:13:48.752Z,100.00
2022-11-05T23:18:50.246Z,100.00
2022-11-05T23:23:51.704Z,100.00
2022-11-05T23:28:53.268Z,100.00
2022-11-05T23:33:54.749Z,100.00
2022-11-05T23:38:56.218Z,100.00
2022-11-05T23:43:57.718Z,100.00
2022-11-05T23:48:59.451Z,100.00
2022-11-05T23:54:01.077Z,100.00
2022-11-05T23:59:02.920Z,100.00
